createdAt,value
2022-07-25T00:02:16.341Z,96290.81
2022-07-25T00:04:46.722Z,96290.88
2022-07-25T00:07:15.368Z,96283.59
2022-07-25T00:09:44.159Z,96280.66
2022-07-25T00:12:14.494Z,96275.53
2022-07-25T00:14:42.864Z,96270.81
2022-07-25T00:17:11.183Z,96269.47
2022-07-25T00:19:39.643Z,96272.56
2022-07-25T00:22:09.362Z,96270.72
2022-07-25T00:24:37.632Z,96262.28
2022-07-25T00:27:06.319Z,96269.13
2022-07-25T00:29:34.690Z,96269.56
2022-07-25T00:32:07.104Z,96266.88
2022-07-25T00:34:35.529Z,96276.91
2022-07-25T00:37:03.865Z,96269.97
2022-07-25T00:39:35.760Z,96265.22
2022-07-25T00:42:05.218Z,96260.91
2022-07-25T00:44:34.436Z,96252.53
2022-07-25T00:47:02.894Z,96245.03
2022-07-25T00:49:31.281Z,96252.31
2022-07-25T00:51:59.711Z,96253.59
2022-07-25T00:54:28.041Z,96247.41
2022-07-25T00:56:57.755Z,96250.63
2022-07-25T00:59:26.065Z,96244.69
2022-07-25T01:01:54.784Z,96236.69
2022-07-25T01:04:23.205Z,96238.34
2022-07-25T01:06:51.541Z,96238.00
2022-07-25T01:09:20.387Z,96242.59
2022-07-25T01:11:48.765Z,96237.88
2022-07-25T01:14:18.466Z,96245.28
2022-07-25T01:16:46.855Z,96242.25
2022-07-25T01:19:15.182Z,96237.66
2022-07-25T01:21:45.011Z,96240.97
2022-07-25T01:24:13.431Z,96238.09
2022-07-25T01:26:41.959Z,96238.94
2022-07-25T01:29:10.356Z,96234.84
2022-07-25T01:31:38.736Z,96233.69
2022-07-25T01:34:07.344Z,96233.50
2022-07-25T01:36:36.007Z,96238.06
2022-07-25T01:39:05.835Z,96234.16
2022-07-25T01:41:34.192Z,96234.56
2022-07-25T01:44:02.743Z,96235.19
2022-07-25T01:46:31.322Z,96238.69
2022-07-25T01:48:59.752Z,96232.94
2022-07-25T01:51:28.134Z,96234.78
2022-07-25T01:53:56.436Z,96229.47
2022-07-25T01:56:27.269Z,96222.09
2022-07-25T01:58:58.700Z,96223.97
2022-07-25T02:01:27.470Z,96213.03
2022-07-25T02:03:55.838Z,96209.41
2022-07-25T02:06:24.335Z,96203.47
2022-07-25T02:08:52.701Z,96212.97
2022-07-25T02:11:21.185Z,96209.28
2022-07-25T02:13:50.902Z,96208.66
2022-07-25T02:16:19.359Z,96208.06
2022-07-25T02:18:57.541Z,96203.13
2022-07-25T02:21:25.978Z,96208.47
2022-07-25T02:23:54.321Z,96200.44
2022-07-25T02:26:22.594Z,96196.75
2022-07-25T02:28:52.503Z,96196.34
2022-07-25T02:31:20.844Z,96192.84
2022-07-25T02:33:49.154Z,96193.91
2022-07-25T02:36:17.803Z,96197.34
2022-07-25T02:38:46.270Z,96202.94
2022-07-25T02:41:14.568Z,96199.81
2022-07-25T02:43:42.913Z,96200.47
2022-07-25T02:46:12.722Z,96200.69
2022-07-25T02:48:41.355Z,96197.00
2022-07-25T02:51:09.709Z,96200.91
2022-07-25T02:53:56.762Z,96202.94
2022-07-25T02:56:28.959Z,96204.63
2022-07-25T02:58:58.693Z,96199.03
2022-07-25T03:01:28.574Z,96198.63
2022-07-25T03:03:57.144Z,96203.56
2022-07-25T03:06:25.562Z,96198.63
2022-07-25T03:08:53.872Z,96198.63
2022-07-25T03:11:22.728Z,96198.63
2022-07-25T03:13:51.134Z,96197.22
2022-07-25T03:16:19.563Z,96205.81
2022-07-25T03:18:49.275Z,96193.91
2022-07-25T03:21:17.624Z,96206.25
2022-07-25T03:23:50.434Z,96202.97
2022-07-25T03:26:20.795Z,96199.88
2022-07-25T03:28:49.132Z,96195.78
2022-07-25T03:31:17.600Z,96196.16
2022-07-25T03:33:46.075Z,96205.22
2022-07-25T03:36:15.776Z,96203.38
2022-07-25T03:38:44.233Z,96194.31
2022-07-25T03:41:13.499Z,96194.53
2022-07-25T03:43:42.000Z,96190.00
2022-07-25T03:46:10.353Z,96178.88
2022-07-25T03:48:38.930Z,96199.66
2022-07-25T03:51:07.591Z,96188.34
2022-07-25T03:53:57.561Z,96200.69
2022-07-25T03:56:25.881Z,96192.66
2022-07-25T03:58:54.237Z,96190.22
2022-07-25T04:01:22.674Z,96186.69
2022-07-25T04:03:51.050Z,96185.47
2022-07-25T04:06:19.756Z,96189.59
2022-07-25T04:08:49.361Z,96186.91
2022-07-25T04:11:17.880Z,96181.34
2022-07-25T04:13:46.274Z,96175.00
2022-07-25T04:16:17.397Z,96178.38
2022-07-25T04:18:51.130Z,96172.09
2022-07-25T04:21:20.158Z,96169.56
2022-07-25T04:23:50.509Z,96167.22
2022-07-25T04:26:18.736Z,96169.25
2022-07-25T04:28:46.955Z,96167.50
2022-07-25T04:31:15.278Z,96156.25
2022-07-25T04:33:44.202Z,96158.03
2022-07-25T04:36:12.535Z,96151.84
2022-07-25T04:38:40.883Z,96146.78
2022-07-25T04:41:10.602Z,96143.88
2022-07-25T04:43:39.133Z,96144.00
2022-07-25T04:46:07.784Z,96144.28
2022-07-25T04:48:36.240Z,96147.84
2022-07-25T04:51:04.556Z,96144.34
2022-07-25T04:53:34.323Z,96150.25
2022-07-25T04:56:02.754Z,96145.38
2022-07-25T04:58:32.499Z,96144.91
2022-07-25T05:01:00.899Z,96143.41
2022-07-25T05:03:29.346Z,96141.31
2022-07-25T05:05:57.676Z,96140.78
2022-07-25T05:08:25.963Z,96141.41
2022-07-25T05:10:54.252Z,96138.91
2022-07-25T05:13:22.796Z,96137.13
2022-07-25T05:15:52.644Z,96139.56
2022-07-25T05:18:21.574Z,96135.69
2022-07-25T05:20:49.889Z,96138.53
2022-07-25T05:23:18.204Z,96136.63
2022-07-25T05:25:46.675Z,96129.50
2022-07-25T05:28:15.869Z,96138.31
2022-07-25T05:30:44.457Z,96131.69
2022-07-25T05:33:14.122Z,96136.81
2022-07-25T05:35:42.436Z,96135.34
2022-07-25T05:38:10.917Z,96133.94
2022-07-25T05:40:39.494Z,96126.56
2022-07-25T05:43:07.828Z,96139.66
2022-07-25T05:45:36.091Z,96131.16
2022-07-25T05:48:04.403Z,96134.84
2022-07-25T05:50:34.108Z,96136.25
2022-07-25T05:53:02.295Z,96135.03
2022-07-25T05:55:30.503Z,96129.75
2022-07-25T05:57:58.793Z,96126.44
2022-07-25T06:00:27.364Z,96122.00
2022-07-25T06:02:59.359Z,96129.25
2022-07-25T06:05:27.779Z,96130.13
2022-07-25T06:07:57.470Z,96127.41
2022-07-25T06:10:25.909Z,96124.81
2022-07-25T06:12:54.338Z,96125.91
2022-07-25T06:15:27.053Z,96126.28
2022-07-25T06:17:55.938Z,96117.81
2022-07-25T06:20:24.419Z,96111.91
2022-07-25T06:22:53.793Z,96118.81
2022-07-25T06:25:23.652Z,96117.66
2022-07-25T06:27:51.914Z,96120.00
2022-07-25T06:30:20.766Z,96123.66
2022-07-25T06:32:49.414Z,96120.63
2022-07-25T06:35:18.017Z,96117.34
2022-07-25T06:37:46.430Z,96110.78
2022-07-25T06:40:14.960Z,96118.16
2022-07-25T06:42:45.871Z,96110.09
2022-07-25T06:45:15.410Z,96105.31
2022-07-25T06:47:44.484Z,96102.72
2022-07-25T06:50:15.432Z,96103.09
2022-07-25T06:52:44.195Z,96099.97
2022-07-25T06:55:13.793Z,96096.28
2022-07-25T06:57:44.212Z,96092.84
2022-07-25T07:00:14.173Z,96086.47
2022-07-25T07:02:50.178Z,96100.72
2022-07-25T07:05:18.618Z,96085.38
2022-07-25T07:07:47.983Z,96091.56
2022-07-25T07:10:17.158Z,96087.81
2022-07-25T07:12:46.880Z,96087.00
2022-07-25T07:15:15.752Z,96086.75
2022-07-25T07:17:44.513Z,96082.97
2022-07-25T07:20:13.438Z,96085.94
2022-07-25T07:22:46.641Z,96087.53
2022-07-25T07:25:15.785Z,96077.50
2022-07-25T07:27:45.945Z,96083.47
2022-07-25T07:30:14.827Z,96071.03
2022-07-25T07:32:43.375Z,96079.16
2022-07-25T07:35:12.320Z,96066.56
2022-07-25T07:37:43.586Z,96068.47
2022-07-25T07:40:17.500Z,96067.91
2022-07-25T07:42:49.364Z,96061.03
2022-07-25T07:45:20.241Z,96070.81
2022-07-25T07:47:49.430Z,96061.56
2022-07-25T07:50:19.154Z,96071.66
2022-07-25T07:55:45.444Z,96065.13
2022-07-25T07:58:16.868Z,96060.78
2022-07-25T08:00:47.694Z,96064.09
2022-07-25T08:03:19.047Z,96070.13
2022-07-25T08:05:49.138Z,96065.38
2022-07-25T08:08:17.590Z,96059.31
2022-07-25T08:10:48.488Z,96062.91
2022-07-25T08:13:19.225Z,96061.91
2022-07-25T08:15:50.225Z,96061.78
2022-07-25T08:18:19.189Z,96060.81
2022-07-25T08:20:47.537Z,96059.69
2022-07-25T08:23:16.280Z,96058.50
2022-07-25T08:25:45.030Z,96064.84
2022-07-25T08:28:13.934Z,96061.97
2022-07-25T08:30:43.996Z,96058.34
2022-07-25T08:33:13.315Z,96042.69
2022-07-25T08:35:42.744Z,96047.44
2022-07-25T08:38:11.799Z,96038.88
2022-07-25T08:40:40.335Z,96039.63
2022-07-25T08:43:12.268Z,96039.41
2022-07-25T08:45:46.114Z,96035.94
2022-07-25T08:48:15.008Z,96037.63
2022-07-25T08:50:43.492Z,96027.47
2022-07-25T08:56:00.095Z,96030.72
2022-07-25T08:58:28.716Z,96030.44
2022-07-25T09:00:58.539Z,96023.28
2022-07-25T09:03:28.003Z,96023.19
2022-07-25T09:05:56.373Z,96028.88
2022-07-25T09:08:24.714Z,96023.06
2022-07-25T09:10:53.949Z,96018.56
2022-07-25T09:13:23.668Z,96018.06
2022-07-25T09:15:53.917Z,96007.94
2022-07-25T09:18:26.099Z,96020.59
2022-07-25T09:20:58.812Z,96021.84
2022-07-25T09:23:32.171Z,96015.28
2022-07-25T09:26:04.631Z,96013.22
2022-07-25T09:28:33.441Z,96011.84
2022-07-25T09:31:03.045Z,96007.00
2022-07-25T09:33:33.229Z,95998.03
2022-07-25T09:36:11.479Z,96000.34
2022-07-25T09:38:39.825Z,96000.41
2022-07-25T09:41:09.301Z,96005.88
2022-07-25T09:43:38.562Z,95999.28
2022-07-25T09:46:07.304Z,95990.53
2022-07-25T09:48:38.195Z,95999.19
2022-07-25T09:51:07.468Z,95999.22
2022-07-25T09:53:37.246Z,95989.56
2022-07-25T09:56:05.963Z,95996.06
2022-07-25T09:58:34.364Z,95988.88
2022-07-25T10:01:05.042Z,95984.13
2022-07-25T10:03:46.573Z,95982.97
2022-07-25T10:06:21.391Z,95989.19
2022-07-25T10:08:50.464Z,95981.47
2022-07-25T10:11:23.089Z,95985.72
2022-07-25T10:13:51.960Z,95982.28
2022-07-25T10:16:22.046Z,95986.81
2022-07-25T10:18:53.727Z,95972.03
2022-07-25T10:21:27.637Z,95974.50
2022-07-25T10:24:01.330Z,95973.63
2022-07-25T10:26:30.222Z,95975.03
2022-07-25T10:28:59.059Z,95970.03
2022-07-25T10:31:34.781Z,95974.47
2022-07-25T10:34:06.353Z,95971.09
2022-07-25T10:36:46.028Z,95968.91
2022-07-25T10:39:17.099Z,95962.09
2022-07-25T10:41:50.833Z,95954.19
2022-07-25T10:44:19.124Z,95963.78
2022-07-25T10:46:48.552Z,95961.38
2022-07-25T10:49:29.262Z,95942.47
2022-07-25T10:52:03.173Z,95937.38
2022-07-25T10:57:21.042Z,95933.25
2022-07-25T10:59:49.330Z,95932.41
2022-07-25T11:02:19.182Z,95939.41
2022-07-25T11:05:00.155Z,95937.63
2022-07-25T11:07:28.953Z,95926.91
2022-07-25T11:09:58.305Z,95923.22
2022-07-25T11:12:26.892Z,95929.22
2022-07-25T11:14:58.759Z,95916.44
2022-07-25T11:17:27.159Z,95911.06
2022-07-25T11:19:58.253Z,95921.88
2022-07-25T11:22:27.886Z,95914.69
2022-07-25T11:24:57.182Z,95909.72
2022-07-25T11:27:27.221Z,95920.19
2022-07-25T11:30:06.236Z,95912.47
2022-07-25T11:32:39.911Z,95903.16
2022-07-25T11:35:11.021Z,95911.28
2022-07-25T11:37:40.954Z,95897.91
2022-07-25T11:40:10.616Z,95903.56
2022-07-25T11:45:29.458Z,95905.66
2022-07-25T11:48:04.902Z,95890.59
2022-07-25T11:50:35.685Z,95884.94
2022-07-25T11:53:05.941Z,95878.69
2022-07-25T11:55:36.876Z,95885.13
2022-07-25T11:58:06.517Z,95882.06
2022-07-25T12:00:35.265Z,95878.84
2022-07-25T12:03:08.286Z,95884.28
2022-07-25T12:05:38.298Z,95890.00
2022-07-25T12:08:11.041Z,95875.44
2022-07-25T12:10:40.314Z,95866.31
2022-07-25T12:13:10.202Z,95873.50
2022-07-25T12:15:39.874Z,95867.53
2022-07-25T12:18:09.436Z,95864.91
2022-07-25T12:20:40.470Z,95854.03
2022-07-25T12:23:11.129Z,95848.47
2022-07-25T12:25:40.923Z,95853.63
2022-07-25T12:28:10.756Z,95849.44
2022-07-25T12:30:39.941Z,95856.41
2022-07-25T12:33:08.942Z,95833.59
2022-07-25T12:35:38.933Z,95843.88
2022-07-25T12:38:07.265Z,95847.13
2022-07-25T12:40:35.708Z,95841.19
2022-07-25T12:43:05.004Z,95843.31
2022-07-25T12:45:33.423Z,95837.75
2022-07-25T12:48:02.033Z,95831.41
2022-07-25T12:50:30.428Z,95840.88
2022-07-25T12:53:00.119Z,95826.34
2022-07-25T12:55:28.833Z,95829.03
2022-07-25T12:57:57.350Z,95829.56
2022-07-25T13:00:26.145Z,95832.63
2022-07-25T13:02:55.783Z,95823.28
2022-07-25T13:05:25.553Z,95827.38
2022-07-25T13:07:54.150Z,95825.44
2022-07-25T13:10:23.866Z,95832.34
2022-07-25T13:12:52.335Z,95822.06
2022-07-25T13:15:23.314Z,95808.50
2022-07-25T13:17:51.625Z,95807.78
2022-07-25T13:20:19.934Z,95814.16
2022-07-25T13:22:48.266Z,95826.94
2022-07-25T13:25:16.730Z,95814.09
2022-07-25T13:27:46.554Z,95795.72
2022-07-25T13:30:15.483Z,95810.16
2022-07-25T13:32:43.970Z,95803.63
2022-07-25T13:35:12.294Z,95801.94
2022-07-25T13:37:40.825Z,95799.94
2022-07-25T13:40:09.853Z,95791.69
2022-07-25T13:42:38.287Z,95778.72
2022-07-25T13:45:09.788Z,95781.09
2022-07-25T13:47:38.312Z,95782.03
2022-07-25T13:50:08.245Z,95788.41
2022-07-25T13:52:37.762Z,95774.53
2022-07-25T13:55:06.997Z,95785.59
2022-07-25T13:57:35.358Z,95773.88
2022-07-25T14:00:04.298Z,95775.19
2022-07-25T14:02:34.007Z,95774.66
2022-07-25T14:05:04.334Z,95777.69
2022-07-25T14:07:32.811Z,95770.56
2022-07-25T14:10:01.206Z,95765.91
2022-07-25T14:12:29.535Z,95754.03
2022-07-25T14:14:58.074Z,95763.25
2022-07-25T14:17:30.146Z,95761.78
2022-07-25T14:20:00.355Z,95758.94
2022-07-25T14:22:28.677Z,95757.06
2022-07-25T14:24:57.111Z,95754.84
2022-07-25T14:27:25.577Z,95750.31
2022-07-25T14:29:54.227Z,95747.03
2022-07-25T14:32:22.753Z,95730.91
2022-07-25T14:34:52.517Z,95743.16
2022-07-25T14:37:23.564Z,95744.56
2022-07-25T14:39:52.207Z,95734.31
2022-07-25T14:42:20.582Z,95725.13
2022-07-25T14:44:48.905Z,95741.69
2022-07-25T14:47:17.299Z,95730.28
2022-07-25T14:49:45.687Z,95734.59
2022-07-25T14:52:14.769Z,95730.97
2022-07-25T14:54:44.486Z,95725.56
2022-07-25T14:57:12.843Z,95727.41
2022-07-25T14:59:41.201Z,95717.84
2022-07-25T15:02:11.058Z,95716.63
2022-07-25T15:04:39.405Z,95715.00
2022-07-25T15:07:07.803Z,95712.53
2022-07-25T15:09:36.284Z,95712.28
2022-07-25T15:12:06.561Z,95703.66
2022-07-25T15:14:35.752Z,95716.53
2022-07-25T15:17:04.159Z,95711.91
2022-07-25T15:19:32.584Z,95703.88
2022-07-25T15:22:01.018Z,95697.66
2022-07-25T15:24:29.527Z,95690.69
2022-07-25T15:26:58.329Z,95704.28
2022-07-25T15:29:28.631Z,95694.41
2022-07-25T15:31:57.100Z,95685.78
2022-07-25T15:34:25.567Z,95671.75
2022-07-25T15:36:55.507Z,95668.56
2022-07-25T15:39:24.486Z,95673.22
2022-07-25T15:41:52.996Z,95669.94
2022-07-25T15:44:21.432Z,95676.38
2022-07-25T15:46:51.252Z,95675.38
2022-07-25T15:49:19.870Z,95666.16
2022-07-25T15:51:48.291Z,95660.69
2022-07-25T15:54:16.744Z,95650.28
2022-07-25T15:56:45.141Z,95651.66
2022-07-25T15:59:14.698Z,95657.00
2022-07-25T16:01:43.592Z,95647.34
2022-07-25T16:04:13.467Z,95640.31
2022-07-25T16:06:42.038Z,95641.72
2022-07-25T16:09:12.382Z,95638.31
2022-07-25T16:11:40.885Z,95630.81
2022-07-25T16:14:09.982Z,95630.16
2022-07-25T16:16:38.612Z,95635.56
2022-07-25T16:19:09.729Z,95623.38
2022-07-25T16:21:39.975Z,95625.75
2022-07-25T16:24:09.479Z,95622.56
2022-07-25T16:26:38.327Z,95623.16
2022-07-25T16:29:07.256Z,95617.13
2022-07-25T16:31:36.025Z,95617.41
2022-07-25T16:34:04.608Z,95612.06
2022-07-25T16:36:33.271Z,95606.63
2022-07-25T16:39:03.619Z,95607.16
2022-07-25T16:41:32.185Z,95616.56
2022-07-25T16:44:00.634Z,95609.53
2022-07-25T16:46:29.077Z,95609.69
2022-07-25T16:48:57.599Z,95608.06
2022-07-25T16:51:26.104Z,95604.91
2022-07-25T16:53:54.616Z,95608.44
2022-07-25T16:56:24.499Z,95609.69
2022-07-25T16:58:53.869Z,95609.75
2022-07-25T17:01:22.441Z,95604.91
2022-07-25T17:03:50.993Z,95612.16
2022-07-25T17:06:19.878Z,95608.25
2022-07-25T17:08:48.369Z,95607.44
2022-07-25T17:11:16.827Z,95602.97
2022-07-25T17:13:46.710Z,95603.75
2022-07-25T17:16:15.238Z,95602.13
2022-07-25T17:18:43.697Z,95603.06
2022-07-25T17:21:15.266Z,95613.41
2022-07-25T17:23:43.648Z,95612.41
2022-07-25T17:26:12.189Z,95612.38
2022-07-25T17:28:41.448Z,95616.00
2022-07-25T17:31:11.054Z,95619.03
2022-07-25T17:33:39.154Z,95620.66
2022-07-25T17:36:07.895Z,95625.06
2022-07-25T17:38:36.454Z,95629.44
2022-07-25T17:41:05.556Z,95639.53
2022-07-25T17:43:33.998Z,95659.63
2022-07-25T17:46:02.469Z,95666.75
2022-07-25T17:48:32.427Z,95682.75
2022-07-25T17:51:00.858Z,95693.28
2022-07-25T17:53:29.224Z,95700.19
2022-07-25T17:55:57.632Z,95701.63
2022-07-25T17:58:26.151Z,95692.09
2022-07-25T18:00:59.564Z,95694.63
2022-07-25T18:03:29.684Z,95701.31
2022-07-25T18:06:00.176Z,95691.69
2022-07-25T18:08:30.542Z,95701.84
2022-07-25T18:10:59.027Z,95703.63
2022-07-25T18:13:27.701Z,95704.88
2022-07-25T18:15:56.291Z,95701.66
2022-07-25T18:18:24.803Z,95710.72
2022-07-25T18:20:53.297Z,95709.03
2022-07-25T18:23:24.282Z,95708.72
2022-07-25T18:25:53.576Z,95702.25
2022-07-25T18:28:22.292Z,95714.69
2022-07-25T18:30:55.048Z,95723.03
2022-07-25T18:33:23.290Z,95726.63
2022-07-25T18:35:52.207Z,95734.81
2022-07-25T18:38:22.357Z,95738.81
2022-07-25T18:41:01.752Z,95735.88
2022-07-25T18:43:39.331Z,95744.03
2022-07-25T18:46:10.192Z,95748.72
2022-07-25T18:48:38.839Z,95748.47
2022-07-25T18:51:07.638Z,95748.22
2022-07-25T18:53:37.952Z,95746.84
2022-07-25T18:56:07.103Z,95756.06
2022-07-25T18:58:36.311Z,95752.53
2022-07-25T19:01:04.987Z,95757.72
2022-07-25T19:03:34.927Z,95754.88
2022-07-25T19:06:03.841Z,95753.31
2022-07-25T19:08:33.500Z,95755.22
2022-07-25T19:11:03.245Z,95757.72
2022-07-25T19:13:48.699Z,95753.53
2022-07-25T19:16:17.744Z,95755.09
2022-07-25T19:18:46.301Z,95752.31
2022-07-25T19:21:15.311Z,95756.38
2022-07-25T19:23:49.799Z,95757.34
2022-07-25T19:26:21.136Z,95748.03
2022-07-25T19:28:50.107Z,95745.03
2022-07-25T19:31:18.658Z,95756.16
2022-07-25T19:33:47.324Z,95765.41
2022-07-25T19:36:15.769Z,95771.28
2022-07-25T19:38:44.198Z,95778.97
2022-07-25T19:41:12.601Z,95780.19
2022-07-25T19:43:42.524Z,95776.69
2022-07-25T19:46:10.980Z,95772.47
2022-07-25T19:48:39.632Z,95767.69
2022-07-25T19:51:08.120Z,95769.91
2022-07-25T19:53:36.621Z,95769.47
2022-07-25T19:56:06.695Z,95771.78
2022-07-25T19:58:38.642Z,95772.94
2022-07-25T20:01:08.923Z,95779.94
2022-07-25T20:03:37.358Z,95786.97
2022-07-25T20:06:08.333Z,95787.56
2022-07-25T20:08:39.540Z,95799.91
2022-07-25T20:11:08.321Z,95787.22
2022-07-25T20:13:36.951Z,95779.25
2022-07-25T20:16:06.122Z,95792.28
2022-07-25T20:18:35.970Z,95801.53
2022-07-25T20:21:04.647Z,95805.13
2022-07-25T20:23:33.279Z,95799.41
2022-07-25T20:26:02.438Z,95795.34
2022-07-25T20:28:31.164Z,95785.84
2022-07-25T20:31:01.690Z,95761.16
2022-07-25T20:33:30.311Z,95746.53
2022-07-25T20:36:00.472Z,95777.09
2022-07-25T20:38:31.190Z,95804.25
2022-07-25T20:40:59.911Z,95814.50
2022-07-25T20:43:28.655Z,95820.22
2022-07-25T20:45:57.501Z,95837.56
2022-07-25T20:48:26.128Z,95847.25
2022-07-25T20:50:54.590Z,95844.84
2022-07-25T20:53:24.374Z,95843.97
2022-07-25T20:55:52.851Z,95844.00
2022-07-25T20:58:21.348Z,95814.16
2022-07-25T21:00:49.864Z,95782.59
2022-07-25T21:03:18.392Z,95786.59
2022-07-25T21:05:46.893Z,95825.63
2022-07-25T21:08:15.453Z,95863.53
2022-07-25T21:10:45.265Z,95893.06
2022-07-25T21:13:13.659Z,95910.91
2022-07-25T21:15:46.812Z,95935.47
2022-07-25T21:18:15.142Z,95957.53
2022-07-25T21:20:43.735Z,95979.88
2022-07-25T21:23:12.143Z,96069.41
2022-07-25T21:25:40.615Z,96083.09
2022-07-25T21:28:10.380Z,96101.66
2022-07-25T21:30:41.139Z,96095.88
2022-07-25T21:33:14.270Z,96105.06
2022-07-25T21:35:49.088Z,96119.19
2022-07-25T21:38:26.839Z,96146.19
2022-07-25T21:40:56.887Z,96149.66
2022-07-25T21:43:26.652Z,96178.28
2022-07-25T21:45:55.074Z,96206.75
2022-07-25T21:48:43.952Z,96201.13
2022-07-25T21:51:18.688Z,96171.13
2022-07-25T21:53:48.629Z,96158.09
2022-07-25T21:56:17.106Z,96184.13
2022-07-25T21:58:46.895Z,96182.31
2022-07-25T22:01:15.489Z,96184.31
2022-07-25T22:03:43.982Z,96189.63
2022-07-25T22:06:12.602Z,96176.44
2022-07-25T22:09:17.720Z,96185.97
2022-07-25T22:15:35.193Z,96204.81
2022-07-25T22:21:51.077Z,96244.16
2022-07-25T22:24:19.489Z,96223.81
2022-07-25T22:26:48.048Z,96237.63
2022-07-25T22:29:16.469Z,96254.38
2022-07-25T22:31:46.433Z,96304.44
2022-07-25T22:34:15.003Z,96331.13
2022-07-25T22:36:43.832Z,96332.88
2022-07-25T22:39:12.750Z,96314.97
2022-07-25T22:41:41.267Z,96303.00
2022-07-25T22:44:09.746Z,96315.34
2022-07-25T22:46:38.199Z,96342.31
2022-07-25T22:49:08.570Z,96335.06
2022-07-25T22:51:37.332Z,96321.16
2022-07-25T22:54:06.112Z,96311.28
2022-07-25T22:56:34.442Z,96316.97
2022-07-25T22:59:02.782Z,96314.13
2022-07-25T23:01:31.293Z,96325.34
2022-07-25T23:03:59.776Z,96319.56
2022-07-25T23:06:29.546Z,96313.31
2022-07-25T23:08:57.920Z,96315.78
2022-07-25T23:11:27.186Z,96330.56
2022-07-25T23:17:43.093Z,96357.00
2022-07-25T23:20:12.552Z,96359.31
2022-07-25T23:22:42.479Z,96349.31
2022-07-25T23:25:14.052Z,96337.72
2022-07-25T23:27:42.415Z,96342.13
2022-07-25T23:30:11.695Z,96352.69
2022-07-25T23:32:40.392Z,96347.59
2022-07-25T23:35:09.834Z,96338.28
2022-07-25T23:37:38.272Z,96356.81
2022-07-25T23:40:09.279Z,96340.66
2022-07-25T23:42:37.659Z,96337.34
2022-07-25T23:45:07.425Z,96350.56
2022-07-25T23:47:39.530Z,96348.44
2022-07-25T23:50:10.774Z,96317.06
2022-07-25T23:52:39.217Z,96324.25
2022-07-25T23:55:09.933Z,96298.97
2022-07-25T23:57:38.311Z,96294.50
